Kendall, MI

8:50 PM EST on January 29, 2015 (GMT -0500)
Kalamazoo-Battle Creek International | Change Station
CLOSE
Current Station
Airport
Location: Kalamazoo,
Elevation: 873 ft
Nearby Weather Stations

Elev 873 ft 42.23 °N, 85.55 °W | Updated 57 minutes ago

Overcast
Overcast
32 °F
Feels Like 22 °F
N
14
Wind Variable Wind from NNW

Today
High -- | Low -- °F
--% Chance of Precip.
Yesterday
High -- | Low -- °F
Precip. -- in
8:00 AM 5:53 PM
Waxing Gibbous, 79% visible
Pressure 30.10 in
Visibility 10.0 miles
Clouds Mostly Cloudy 3100 ft
Overcast 3900 ft
Windchill 22 °F
Dew Point 25 °F
Humidity 75%
Rainfall 0.00 in
Snow Depth Not available.
UV 0 out of 12
Pollen .10 out of 12
Air Quality Not available.
Flu Activity Not available.
METAR KAZO 300053Z 33012KT 10SM BKN031 OVC039 00/M04 A3006 RMK AO2 PK WND 32026/2354 UPB02E25SNB25E27 SLP191 P0000 T00001039

More Conditions Fewer Conditions

Pressure 30.10 in
Visibility 10.0 miles
Clouds Mostly Cloudy 3100 ft
Overcast 3900 ft
Windchill 22 °F
Dew Point 25 °F
Humidity 75%
Rainfall 0.00 in
Snow Depth Not available.
UV 0 out of 12
Pollen .10 out of 12
Air Quality Not available.
Flu Activity Not available.
METAR KAZO 300053Z 33012KT 10SM BKN031 OVC039 00/M04 A3006 RMK AO2 PK WND 32026/2354 UPB02E25SNB25E27 SLP191 P0000 T00001039

More Conditions Fewer Conditions

10-Day Weather Forecast

Almanac

Astronomy

Jan. 29, 2015 Rise Set
Actual Time
Civil Twilight
Nautical Twilight
Astronomical Twilight
Moon
Length of Visible Light
Length of Day
Tomorrow will be .
, % of the Moon is Illuminated

Today's Extremes

State Highs State Lows

Community

WunderPhotos

Upload Photos

1,791,683 photos uploaded!

WunderBlogs® & News

Nearby

Air Quality

  Air Quality AQ Index Pollutant
Not available.

Snow Depth

Station Depth Elevation

Earthquake Activity

City Distance Mag. Time & Date
Minimum magnitude displayed is 2.5.

Coastal Water Temperatures

Place Temperature

Nearby Weather Stations